BIKF/KEF METAR and TAF weather

Enter ICAO airport designator
Station Type Date Time Source
BIKF METAR 2020/03/29 12:00 UTC NOAA

BIKF 291200Z 22017KT 9999 FEW020 BKN043 06/05 Q1046


Station Type Date Time Source
BIKF Decoded METAR 2020/03/29 12:00 UTC NOAA

Keflavikurflugvollur, Iceland (BIKF) 63-58N 022-36W 54M
Mar 29, 2020 - 08:00 AM EDT / 2020.03.29 1200 UTC
Wind: from the SW (220 degrees) at 20 MPH (17 KT):0
Visibility: greater than 7 mile(s):0
Sky conditions: mostly cloudy
Temperature: 42 F (6 C)
Dew Point: 41 F (5 C)
Relative Humidity: 93%
Pressure (altimeter): 30.89 in. Hg (1046 hPa)
ob: BIKF 291200Z 22017KT 9999 FEW020 BKN043 06/05 Q1046
cycle: 12

Station Type Date Time Source
BIKF TAF 2020/03/29 12:28 UTC NOAA

TAF BIKF 291017Z 2912/3012 22015KT 9000 -DZ FEW006 BKN012 OVC023 TX06/2912Z TN05/3003Z
TEMPO 2912/3012 3000 DZ BR BKN005 OVC008

Example: see airport list